Time;durP1;ratioP1;P1;durP2;ratioP2;P2;SDS_P1;SDS_P2;PMS_P1;PMS_P2;Temp;Humidity;BMP_temperature;BMP_pressure;BME280_temperature;BME280_humidity;BME280_pressure;Samples;Min_cycle;Max_cycle;Signal;HPM_P1;HPM_P2
2022/05/29 00:00:41;;;;;;;22.08;6.32;;;;;;;;;;4992266;28;20433;-75
2022/05/29 00:03:08;;;;;;;16.50;5.63;;;;;;;;;;4988603;28;20436;-75
2022/05/29 00:05:37;;;;;;;19.08;6.18;;;10.10;99.90;;;;;;4957528;28;21050;-76
2022/05/29 00:08:03;;;;;;;19.67;6.10;;;;;;;;;;4985488;28;20434;-77
2022/05/29 00:10:29;;;;;;;15.07;5.00;;;;;;;;;;4975821;28;20516;-76
2022/05/29 00:12:55;;;;;;;18.67;5.60;;;;;;;;;;4992255;28;20423;-77
2022/05/29 00:15:21;;;;;;;14.85;4.75;;;;;;;;;;4973978;28;20426;-77
2022/05/29 00:17:47;;;;;;;16.83;5.28;;;;;;;;;;4963228;28;20428;-77
2022/05/29 00:20:14;;;;;;;20.00;5.25;;;;;;;;;;4955984;28;20431;-77
2022/05/29 00:22:40;;;;;;;16.55;5.15;;;;;;;;;;4972495;28;20445;-77
2022/05/29 00:25:10;;;;;;;20.35;5.63;;;9.40;99.90;;;;;;4991977;28;20525;-76
2022/05/29 00:27:36;;;;;;;16.20;4.93;;;;;;;;;;4985971;28;20430;-77
2022/05/29 00:30:04;;;;;;;21.52;5.47;;;9.70;99.90;;;;;;4983485;28;20430;-77
2022/05/29 00:32:30;;;;;;;20.13;5.47;;;;;;;;;;4971305;28;20423;-77
2022/05/29 00:34:56;;;;;;;18.27;5.13;;;;;;;;;;4993357;28;20406;-77
2022/05/29 00:37:23;;;;;;;16.45;5.75;;;;;;;;;;4956973;28;20420;-78
2022/05/29 00:39:50;;;;;;;20.10;5.35;;;;;;;;;;4991986;28;20430;-76
2022/05/29 00:42:18;;;;;;;17.58;5.25;;;;;;;;;;4991453;28;20455;-77
2022/05/29 00:44:45;;;;;;;24.70;6.03;;;;;;;;;;4987496;28;20445;-77
2022/05/29 00:47:13;;;;;;;21.08;5.57;;;9.40;99.90;;;;;;4966606;28;20466;-77
2022/05/29 00:49:40;;;;;;;17.42;5.32;;;;;;;;;;4979942;28;20428;-77
2022/05/29 00:52:16;;;;;;;20.65;5.47;;;9.40;99.90;;;;;;4969311;28;20916;-77
2022/05/29 00:54:53;;;;;;;20.53;5.47;;;;;;;;;;4976322;28;20798;-77
2022/05/29 00:57:20;;;;;;;20.13;5.57;;;;;;;;;;4988536;28;20433;-77
2022/05/29 00:59:47;;;;;;;17.10;5.27;;;;;;;;;;4970371;28;21146;-77
2022/05/29 01:02:13;;;;;;;19.13;5.47;;;;;;;;;;4980573;28;20436;-74
2022/05/29 01:04:42;;;;;;;17.30;5.57;;;9.50;99.90;;;;;;4988041;28;20454;-76
2022/05/29 01:07:11;;;;;;;21.50;4.93;;;;;;;;;;4972257;28;20418;-76
2022/05/29 01:09:39;;;;;;;13.38;5.15;;;9.40;99.90;;;;;;4972055;28;20432;-76
2022/05/29 01:12:20;;;;;;;16.85;5.38;;;;;;;;;;4972408;28;20434;-76
2022/05/29 01:14:46;;;;;;;14.68;5.20;;;;;;;;;;4983282;28;20466;-76
2022/05/29 01:17:26;;;;;;;16.80;5.33;;;;;;;;;;4986283;28;20945;-76
2022/05/29 01:20:01;;;;;;;14.38;5.00;;;;;;;;;;4987704;28;20756;-76
2022/05/29 01:22:46;;;;;;;14.60;4.10;;;;;;;;;;4989283;28;20492;-76
2022/05/29 01:25:34;;;;;;;13.40;4.38;;;9.40;99.90;;;;;;4985480;28;20460;-76
2022/05/29 01:28:00;;;;;;;13.60;4.78;;;;;;;;;;4966727;28;20423;-75
2022/05/29 01:30:26;;;;;;;15.52;5.10;;;;;;;;;;4988732;28;20437;-74
2022/05/29 01:33:01;;;;;;;16.77;4.65;;;;;;;;;;4972615;28;20457;-75
2022/05/29 01:35:35;;;;;;;15.67;4.43;;;9.40;99.90;;;;;;4989500;28;20975;-75
2022/05/29 01:38:04;;;;;;;16.77;4.55;;;;;;;;;;4967843;28;20434;-76
2022/05/29 01:40:50;;;;;;;13.93;4.95;;;;;;;;;;4989322;28;20414;-76
2022/05/29 01:43:22;;;;;;;13.63;5.00;;;;;;;;;;4986980;28;20993;-74
2022/05/29 01:45:57;;;;;;;15.87;5.03;;;;;;;;;;4988075;28;20439;-76
2022/05/29 01:48:33;;;;;;;14.88;5.43;;;;;;;;;;4987902;28;20433;-75
2022/05/29 01:51:02;;;;;;;17.83;5.40;;;;;;;;;;4909432;28;1798323;-75
2022/05/29 01:53:33;;;;;;;14.95;5.43;;;9.60;99.90;;;;;;4986653;28;20438;-76
2022/05/29 01:56:02;;;;;;;16.45;5.30;;;;;;;;;;4989913;28;20493;-76
2022/05/29 01:58:39;;;;;;;18.42;6.28;;;;;;;;;;4972431;28;20433;-76
2022/05/29 02:01:09;;;;;;;18.45;5.60;;;9.50;99.90;;;;;;4970489;28;20445;-77
2022/05/29 02:03:39;;;;;;;15.57;5.30;;;;;;;;;;4970152;28;20432;-78
2022/05/29 02:06:11;;;;;;;17.50;5.93;;;9.60;99.90;;;;;;4987003;28;20431;-77
2022/05/29 02:08:41;;;;;;;16.20;5.22;;;;;;;;;;4989655;28;20426;-77
2022/05/29 02:11:15;;;;;;;19.83;5.15;;;9.60;99.90;;;;;;4994485;28;20462;-77
2022/05/29 02:13:45;;;;;;;15.10;5.53;;;;;;;;;;4992056;28;20751;-77
2022/05/29 02:16:34;;;;;;;17.40;5.43;;;9.40;99.90;;;;;;4992892;28;20510;-77
2022/05/29 02:19:32;;;;;;;14.75;5.50;;;9.60;99.90;;;;;;4971163;28;20422;-77
2022/05/29 02:22:04;;;;;;;13.20;5.07;;;;;;;;;;4975612;28;20542;-77
2022/05/29 02:24:39;;;;;;;17.20;5.80;;;9.60;99.90;;;;;;4973381;28;20432;-75
2022/05/29 02:27:18;;;;;;;13.48;5.10;;;;;;;;;;4982788;28;20426;-76
2022/05/29 02:29:44;;;;;;;12.35;5.00;;;;;;;;;;4992176;28;20433;-76
2022/05/29 02:32:16;;;;;;;15.75;4.68;;;;;;;;;;4991162;28;20422;-76
2022/05/29 02:35:17;;;;;;;15.05;4.35;;;9.50;99.90;;;;;;4992183;28;20426;-76
2022/05/29 02:37:49;;;;;;;15.02;4.38;;;;;;;;;;4984825;28;20428;-77
2022/05/29 02:40:49;;;;;;;17.73;4.60;;;9.60;99.90;;;;;;4993994;28;20934;-77
2022/05/29 02:43:15;;;;;;;11.87;4.50;;;;;;;;;;4988841;28;20465;-77
2022/05/29 02:45:41;;;;;;;10.50;3.90;;;;;;;;;;4995262;28;20402;-77
2022/05/29 02:48:20;;;;;;;14.82;4.30;;;;;;;;;;4975485;28;20901;-77
2022/05/29 02:50:58;;;;;;;13.75;4.00;;;9.90;99.90;;;;;;4981587;28;20467;-77
2022/05/29 02:53:25;;;;;;;13.20;4.28;;;;;;;;;;4990694;28;20434;-77
2022/05/29 02:55:51;;;;;;;14.30;3.85;;;;;;;;;;4968895;28;20437;-77
2022/05/29 02:58:22;;;;;;;11.67;3.60;;;;;;;;;;4992474;28;20501;-77
2022/05/29 03:01:04;;;;;;;12.60;3.45;;;;;;;;;;4993506;28;20426;-77
2022/05/29 03:03:35;;;;;;;13.07;3.73;;;;;;;;;;4991669;28;20430;-77
2022/05/29 03:06:07;;;;;;;12.45;3.67;;;;;;;;;;4992340;28;20902;-77
2022/05/29 03:08:38;;;;;;;14.38;4.40;;;9.70;99.90;;;;;;4991259;28;20774;-77
2022/05/29 03:11:23;;;;;;;15.52;3.65;;;9.60;99.90;;;;;;4993791;28;20452;-78
2022/05/29 03:14:26;;;;;;;13.73;3.85;;;9.60;99.90;;;;;;4989898;28;20428;-77
2022/05/29 03:16:59;;;;;;;11.70;3.50;;;;;;;;;;4982433;28;20519;-77
2022/05/29 03:19:31;;;;;;;13.25;3.60;;;;;;;;;;4977098;28;20422;-77
2022/05/29 03:21:57;;;;;;;13.73;4.07;;;;;;;;;;4992339;28;20457;-76
2022/05/29 03:24:50;;;;;;;14.23;3.35;;;;;;;;;;4987865;28;20776;-76
2022/05/29 03:27:19;;;;;;;11.13;3.35;;;;;;;;;;4981821;28;20823;-74
2022/05/29 03:29:45;;;;;;;12.40;3.22;;;;;;;;;;4991584;28;20430;-76
2022/05/29 03:32:12;;;;;;;11.02;3.40;;;9.80;99.90;;;;;;4992326;28;20500;-76
2022/05/29 03:34:38;;;;;;;11.32;3.30;;;;;;;;;;4992753;28;20448;-76
2022/05/29 03:37:06;;;;;;;11.85;3.40;;;;;;;;;;4992836;28;20435;-76
2022/05/29 03:39:32;;;;;;;13.38;3.20;;;;;;;;;;4973800;28;20437;-76
2022/05/29 03:41:58;;;;;;;10.63;3.20;;;;;;;;;;4974931;28;20426;-76
2022/05/29 03:44:25;;;;;;;11.63;3.27;;;9.90;99.90;;;;;;4972694;28;20471;-76
2022/05/29 03:46:51;;;;;;;11.60;3.13;;;;;;;;;;4991181;28;20485;-77
2022/05/29 03:49:20;;;;;;;13.68;3.72;;;9.80;99.90;;;;;;4992019;28;20445;-77
2022/05/29 03:51:46;;;;;;;12.80;3.28;;;;;;;;;;4988774;28;20434;-77
2022/05/29 03:54:12;;;;;;;8.87;3.13;;;;;;;;;;4992309;28;21030;-77
2022/05/29 03:56:38;;;;;;;12.52;3.10;;;10.00;99.90;;;;;;4992536;28;20469;-77
2022/05/29 03:59:05;;;;;;;10.63;2.97;;;;;;;;;;4974443;28;20490;-77
2022/05/29 04:01:32;;;;;;;12.40;3.10;;;;;;;;;;4984356;28;20431;-77
2022/05/29 04:03:58;;;;;;;13.63;3.00;;;;;;;;;;4988926;28;20434;-77
2022/05/29 04:06:25;;;;;;;11.75;2.85;;;9.90;99.90;;;;;;4986380;28;20424;-77
2022/05/29 04:14:25;;;;;;;10.75;3.10;;;;;;;;;;4989987;28;20449;-76
2022/05/29 04:16:52;;;;;;;11.82;3.28;;;;;;;;;;4985243;28;20926;-76
2022/05/29 04:19:18;;;;;;;10.48;3.33;;;;;;;;;;4987997;28;20423;-76
2022/05/29 04:21:44;;;;;;;13.60;3.67;;;;;;;;;;4973752;28;20500;-74
2022/05/29 04:24:16;;;;;;;10.67;3.60;;;;;;;;;;4986601;28;20508;-74
2022/05/29 04:26:42;;;;;;;13.48;3.78;;;;;;;;;;4991664;28;20936;-74
2022/05/29 04:29:08;;;;;;;11.47;3.27;;;;;;;;;;4989171;28;20984;-75
2022/05/29 04:31:34;;;;;;;12.32;3.28;;;9.70;99.90;;;;;;4973291;28;20428;-75
2022/05/29 04:34:00;;;;;;;15.82;3.83;;;;;;;;;;4973748;28;20432;-76
2022/05/29 04:36:27;;;;;;;13.43;3.60;;;;;;;;;;4973612;28;21056;-75
2022/05/29 04:38:53;;;;;;;11.98;3.05;;;;;;;;;;4989449;28;20513;-76
2022/05/29 04:41:25;;;;;;;18.73;4.15;;;;;;;;;;4973711;28;20427;-76
2022/05/29 04:43:51;;;;;;;15.57;4.15;;;;;;;;;;4987725;28;20763;-76
2022/05/29 04:46:17;;;;;;;16.17;3.85;;;;;;;;;;4974301;28;20434;-76
2022/05/29 04:48:43;;;;;;;18.17;3.92;;;;;;;;;;4988302;28;20430;-76
2022/05/29 04:51:09;;;;;;;10.27;3.60;;;;;;;;;;4971868;28;20447;-76
2022/05/29 04:53:36;;;;;;;15.88;4.30;;;;;;;;;;4985697;28;20525;-76
2022/05/29 04:56:03;;;;;;;14.57;4.63;;;;;;;;;;4974690;28;20901;-75
2022/05/29 04:58:29;;;;;;;12.82;4.10;;;;;;;;;;4987262;28;20472;-75
2022/05/29 05:01:03;;;;;;;13.65;3.53;;;;;;;;;;4960989;28;20415;-76
2022/05/29 05:03:30;;;;;;;10.88;3.50;;;;;;;;;;4975460;28;20480;-75
2022/05/29 05:05:56;;;;;;;14.63;3.83;;;9.70;99.90;;;;;;4991332;28;20956;-76
2022/05/29 05:08:22;;;;;;;17.25;4.43;;;;;;;;;;4987817;28;20476;-76
2022/05/29 05:10:49;;;;;;;15.43;4.10;;;;;;;;;;4987120;28;20445;-77
2022/05/29 05:13:15;;;;;;;15.40;4.40;;;;;;;;;;4989175;28;20430;-77
2022/05/29 05:15:41;;;;;;;16.95;4.10;;;;;;;;;;4967793;28;20428;-76
2022/05/29 05:18:07;;;;;;;19.00;4.03;;;;;;;;;;4990049;28;21029;-76
2022/05/29 05:20:35;;;;;;;12.73;3.90;;;;;;;;;;4991213;28;20494;-76
2022/05/29 05:23:02;;;;;;;12.95;3.90;;;;;;;;;;4988267;28;20430;-77
2022/05/29 05:25:28;;;;;;;14.77;3.67;;;;;;;;;;4988788;28;20422;-76
2022/05/29 05:27:54;;;;;;;16.63;4.35;;;;;;;;;;4956458;28;20428;-77
2022/05/29 05:30:20;;;;;;;18.57;3.73;;;;;;;;;;4989823;28;20501;-77
2022/05/29 05:32:46;;;;;;;12.85;3.33;;;;;;;;;;4990142;28;20930;-76
2022/05/29 05:35:13;;;;;;;14.63;3.60;;;;;;;;;;4970290;28;20549;-77
2022/05/29 05:37:41;;;;;;;12.95;3.70;;;10.50;99.90;;;;;;4984423;28;20424;-77
2022/05/29 05:40:11;;;;;;;13.20;3.15;;;10.60;99.90;;;;;;4991929;28;20925;-77
2022/05/29 05:42:37;;;;;;;18.60;3.17;;;;;;;;;;4989429;28;20952;-77
2022/05/29 05:45:05;;;;;;;16.65;2.80;;;10.60;99.90;;;;;;4985633;28;20433;-77
2022/05/29 05:47:31;;;;;;;12.10;2.70;;;;;;;;;;4991874;28;20848;-77
2022/05/29 05:49:57;;;;;;;12.75;3.03;;;;;;;;;;4989616;28;20422;-77
2022/05/29 05:52:23;;;;;;;11.20;2.50;;;;;;;;;;4971169;28;20430;-75
2022/05/29 05:54:49;;;;;;;15.95;2.85;;;;;;;;;;4989573;28;20484;-78
2022/05/29 05:57:18;;;;;;;9.18;2.75;;;;;;;;;;4972993;28;20767;-77
2022/05/29 05:59:44;;;;;;;10.55;3.00;;;;;;;;;;4989738;28;20430;-77
2022/05/29 06:02:11;;;;;;;17.98;3.65;;;;;;;;;;4990590;28;20968;-77
2022/05/29 06:04:42;;;;;;;10.80;2.97;;;;;;;;;;4973229;28;20438;-76
2022/05/29 06:07:09;;;;;;;15.48;3.50;;;;;;;;;;4987895;28;20444;-77
2022/05/29 06:09:35;;;;;;;9.80;2.90;;;;;;;;;;4992430;28;20462;-78
2022/05/29 06:12:03;;;;;;;14.48;3.42;;;;;;;;;;4995217;28;20427;-78
2022/05/29 06:14:29;;;;;;;12.98;3.17;;;;;;;;;;4972380;28;20438;-75
2022/05/29 06:16:58;;;;;;;12.05;2.90;;;;;;;;;;4975661;28;20538;-76
2022/05/29 06:19:24;;;;;;;13.93;3.28;;;;;;;;;;4988457;28;20428;-74
2022/05/29 06:21:50;;;;;;;14.25;3.60;;;;;;;;;;4971947;28;20436;-76
2022/05/29 06:24:16;;;;;;;14.98;3.85;;;;;;;;;;4986790;28;20434;-76
2022/05/29 06:26:43;;;;;;;13.65;3.20;;;;;;;;;;4973968;28;20432;-76
2022/05/29 06:29:09;;;;;;;13.80;3.27;;;;;;;;;;4992435;28;20778;-74
2022/05/29 06:31:35;;;;;;;13.02;3.28;;;;;;;;;;4974869;28;20426;-76
2022/05/29 06:34:01;;;;;;;13.80;3.30;;;;;;;;;;4971522;28;20432;-75
2022/05/29 06:36:27;;;;;;;13.30;2.78;;;;;;;;;;4987466;28;20458;-76
2022/05/29 06:38:54;;;;;;;16.33;3.10;;;;;;;;;;4991370;28;20475;-75
2022/05/29 06:41:24;;;;;;;13.43;2.93;;;;;;;;;;4990017;28;20426;-74
2022/05/29 06:43:51;;;;;;;11.85;3.22;;;;;;;;;;4989368;28;20433;-74
2022/05/29 06:46:17;;;;;;;12.85;2.85;;;;;;;;;;4988613;28;20446;-73
2022/05/29 06:48:44;;;;;;;15.37;2.77;;;;;;;;;;4989989;28;20486;-75
2022/05/29 06:51:24;;;;;;;14.27;3.00;;;10.30;99.90;;;;;;4971257;28;20950;-75
2022/05/29 06:53:52;;;;;;;10.07;3.00;;;;;;;;;;4970503;28;20837;-74
2022/05/29 06:56:19;;;;;;;12.70;3.10;;;10.50;99.90;;;;;;4993259;28;20426;-74
2022/05/29 06:58:45;;;;;;;12.38;2.90;;;;;;;;;;4993779;28;20929;-75
2022/05/29 07:07:00;;;;;;;10.87;2.93;;;;;;;;;;4993168;28;20431;-73
2022/05/29 07:09:32;;;;;;;11.93;2.60;;;;;;;;;;4991713;28;20425;-72
2022/05/29 07:12:02;;;;;;;15.32;2.67;;;;;;;;;;4990875;28;20958;-73
2022/05/29 07:14:28;;;;;;;14.03;2.60;;;;;;;;;;4974081;28;20803;-72
2022/05/29 07:16:54;;;;;;;10.65;2.58;;;;;;;;;;4991923;28;20584;-73
2022/05/29 07:19:24;;;;;;;9.48;2.70;;;;;;;;;;4975596;28;20442;-74
2022/05/29 07:21:50;;;;;;;9.10;2.40;;;;;;;;;;4988320;28;20452;-73
2022/05/29 07:24:16;;;;;;;11.10;2.63;;;;;;;;;;4972220;28;20434;-74
2022/05/29 07:26:42;;;;;;;10.77;2.30;;;;;;;;;;4991761;28;20454;-74
2022/05/29 07:29:11;;;;;;;10.52;2.30;;;;;;;;;;4990018;28;20759;-74
2022/05/29 07:31:37;;;;;;;11.85;2.40;;;;;;;;;;4973735;28;20438;-75
2022/05/29 07:34:03;;;;;;;11.30;2.28;;;;;;;;;;4992821;28;20946;-75
2022/05/29 07:36:29;;;;;;;9.20;2.10;;;;;;;;;;4974491;28;20773;-75
2022/05/29 07:38:55;;;;;;;8.35;1.83;;;;;;;;;;4989568;28;20434;-74
2022/05/29 07:44:06;;;;;;;8.93;1.90;;;;;;;;;;4984462;28;20984;-75
2022/05/29 07:46:32;;;;;;;10.07;2.40;;;;;;;;;;4972393;28;20451;-74
2022/05/29 07:49:01;;;;;;;10.60;2.10;;;11.60;99.90;;;;;;4989350;28;20449;-76
2022/05/29 07:51:27;;;;;;;8.30;1.90;;;;;;;;;;4987793;28;20436;-76
2022/05/29 07:53:53;;;;;;;9.63;2.08;;;;;;;;;;4974315;28;20514;-75
2022/05/29 07:56:19;;;;;;;8.40;1.90;;;;;;;;;;4974221;28;20422;-75
2022/05/29 07:58:46;;;;;;;8.18;1.98;;;;;;;;;;4971229;28;20411;-76
2022/05/29 08:01:12;;;;;;;9.32;2.00;;;;;;;;;;4988482;28;20434;-76
2022/05/29 08:03:39;;;;;;;11.75;1.92;;;10.70;99.90;;;;;;4989517;28;21182;-76
2022/05/29 08:06:05;;;;;;;5.90;1.40;;;;;;;;;;4988001;28;20431;-76
2022/05/29 08:08:32;;;;;;;7.78;1.70;;;;;;;;;;4990603;28;20627;-76
2022/05/29 08:10:58;;;;;;;8.75;1.52;;;;;;;;;;4992006;28;20441;-75
2022/05/29 08:13:24;;;;;;;7.93;1.80;;;;;;;;;;4988509;28;20434;-74
2022/05/29 08:15:51;;;;;;;6.90;2.00;;;;;;;;;;4986480;28;20979;-75
2022/05/29 08:18:17;;;;;;;7.50;1.55;;;;;;;;;;4989836;28;20441;-75
2022/05/29 08:20:43;;;;;;;7.03;1.60;;;;;;;;;;4987954;28;20521;-74
2022/05/29 08:23:09;;;;;;;6.18;1.55;;;;;;;;;;4972996;28;20435;-73
2022/05/29 08:31:05;;;;;;;7.57;1.77;;;;;;;;;;4991502;28;20434;-74
2022/05/29 08:33:33;;;;;;;6.45;1.73;;;11.00;99.90;;;;;;4992531;28;20429;-73
2022/05/29 08:36:08;;;;;;;10.50;2.10;;;10.90;99.90;;;;;;4988444;28;20957;-73
2022/05/29 08:38:40;;;;;;;7.60;1.70;;;;;;;;;;4992816;28;20430;-73
2022/05/29 08:41:12;;;;;;;8.13;1.80;;;;;;;;;;4989234;28;20445;-72
2022/05/29 08:43:40;;;;;;;7.10;1.75;;;;;;;;;;4992926;28;20779;-72
2022/05/29 08:46:09;;;;;;;5.72;1.75;;;;;;;;;;4986784;28;20438;-71
2022/05/29 08:48:36;;;;;;;6.32;1.80;;;;;;;;;;4986006;28;20456;-72
2022/05/29 08:51:10;;;;;;;6.97;1.70;;;;;;;;;;4990744;28;20544;-73
2022/05/29 08:53:54;;;;;;;4.82;1.40;;;;;;;;;;4982141;28;20973;-72
2022/05/29 08:56:29;;;;;;;6.37;1.73;;;;;;;;;;4971914;28;20434;-73
2022/05/29 08:59:03;;;;;;;5.88;1.48;;;;;;;;;;4990942;28;20437;-74
2022/05/29 09:01:48;;;;;;;6.60;1.50;;;;;;;;;;4987999;28;20430;-75
2022/05/29 09:04:45;;;;;;;5.63;1.50;;;10.90;99.90;;;;;;4990933;28;20431;-74
2022/05/29 09:07:14;;;;;;;6.00;1.48;;;;;;;;;;4968779;28;20422;-74
2022/05/29 09:09:50;;;;;;;6.55;1.58;;;;;;;;;;4969600;28;20430;-74
2022/05/29 09:12:36;;;;;;;6.77;1.70;;;11.50;99.90;;;;;;4991419;28;20506;-74
2022/05/29 09:15:06;;;;;;;8.20;1.98;;;;;;;;;;4988908;28;20418;-74
2022/05/29 09:17:35;;;;;;;7.50;1.67;;;;;;;;;;4983879;28;20435;-75
2022/05/29 09:20:27;;;;;;;5.95;1.90;;;11.40;99.90;;;;;;4991802;28;20432;-73
2022/05/29 09:23:02;;;;;;;7.00;1.77;;;11.50;99.90;;;;;;4988448;28;20433;-74
2022/05/29 09:25:32;;;;;;;6.35;1.70;;;;;;;;;;4983278;28;20442;-74
2022/05/29 09:28:00;;;;;;;6.93;1.70;;;;;;;;;;4969077;28;21044;-74
2022/05/29 09:30:26;;;;;;;7.83;1.73;;;;;;;;;;4972041;28;20577;-74
2022/05/29 09:33:07;;;;;;;7.82;2.03;;;11.40;99.90;;;;;;4987616;28;20434;-74
2022/05/29 09:35:36;;;;;;;9.35;2.10;;;;;;;;;;4967018;28;20425;-73
2022/05/29 09:38:02;;;;;;;9.30;2.05;;;;;;;;;;4987893;28;20430;-74
2022/05/29 09:40:46;;;;;;;8.48;1.98;;;;;;;;;;4971359;28;21218;-74
2022/05/29 09:43:14;;;;;;;8.55;1.88;;;;;;;;;;4988409;28;20430;-74
2022/05/29 09:45:40;;;;;;;4.97;1.65;;;;;;;;;;4986530;28;20457;-74
2022/05/29 09:51:19;;;;;;;6.72;1.70;;;11.80;99.90;;;;;;4986812;28;20558;-74
2022/05/29 09:53:53;;;;;;;6.93;1.45;;;11.90;99.90;;;;;;4984066;28;20441;-73
2022/05/29 09:56:32;;;;;;;3.88;1.10;;;;;;;;;;4989524;28;20448;-74
2022/05/29 09:59:19;;;;;;;4.93;1.40;;;;;;;;;;4970261;28;20430;-74
2022/05/29 10:01:46;;;;;;;6.45;1.35;;;;;;;;;;4983778;28;20911;-73
2022/05/29 10:04:12;;;;;;;4.55;1.10;;;;;;;;;;4989331;28;20925;-73
2022/05/29 10:06:42;;;;;;;6.05;1.30;;;;;;;;;;4987948;28;20569;-74
2022/05/29 10:09:10;;;;;;;5.95;1.50;;;;;;;;;;4983728;28;20427;-74
2022/05/29 10:11:37;;;;;;;5.70;1.30;;;;;;;;;;4984002;28;20810;-74
2022/05/29 10:14:24;;;;;;;4.60;1.40;;;;;;;;;;4968025;28;20456;-74
2022/05/29 10:16:50;;;;;;;5.30;1.38;;;;;;;;;;4985975;28;20879;-73
2022/05/29 10:19:36;;;;;;;8.43;1.77;;;;;;;;;;4990202;28;22230;-73
2022/05/29 10:22:10;;;;;;;5.72;1.40;;;11.80;99.90;;;;;;4987707;28;20442;-72
2022/05/29 10:24:37;;;;;;;5.43;1.77;;;;;;;;;;4986166;28;20443;-73
2022/05/29 10:27:06;;;;;;;6.28;1.83;;;;;;;;;;4983056;28;20430;-73
2022/05/29 10:29:36;;;;;;;9.43;1.67;;;11.10;99.90;;;;;;4987874;28;20484;-73
2022/05/29 10:32:05;;;;;;;5.60;1.73;;;;;;;;;;4985929;28;20430;-73
2022/05/29 10:34:33;;;;;;;11.25;2.50;;;;;;;;;;4976366;28;20521;-73
2022/05/29 10:37:01;;;;;;;8.38;2.10;;;;;;;;;;4980269;28;20792;-74
2022/05/29 10:39:31;;;;;;;5.47;1.80;;;11.60;99.90;;;;;;4993073;28;20425;-73
2022/05/29 10:41:58;;;;;;;7.72;1.88;;;;;;;;;;4990629;28;20465;-73
2022/05/29 10:44:36;;;;;;;8.50;1.85;;;11.80;99.90;;;;;;4987985;28;20437;-73
2022/05/29 10:47:16;;;;;;;5.95;1.88;;;12.00;99.90;;;;;;4988657;28;20426;-73
2022/05/29 10:49:48;;;;;;;7.27;2.20;;;;;;;;;;4983940;28;20501;-73
2022/05/29 10:52:24;;;;;;;9.00;1.77;;;;;;;;;;4987640;28;20441;-74
2022/05/29 10:54:59;;;;;;;7.28;1.50;;;;;;;;;;4984746;28;20465;-73
2022/05/29 10:57:31;;;;;;;5.57;1.50;;;;;;;;;;4988406;28;20533;-73
2022/05/29 11:00:09;;;;;;;7.43;2.03;;;12.50;99.90;;;;;;4988103;28;20422;-73
2022/05/29 11:05:54;;;;;;;7.10;1.50;;;;;;;;;;4990412;28;20437;-75
2022/05/29 11:08:37;;;;;;;8.25;1.80;;;;;;;;;;4966950;28;21550;-74
2022/05/29 11:11:30;;;;;;;6.07;1.80;;;;;;;;;;4971546;28;20438;-74
2022/05/29 11:14:20;;;;;;;6.25;2.13;;;;;;;;;;4970021;28;20426;-76
2022/05/29 11:16:58;;;;;;;10.02;2.30;;;;;;;;;;4982316;28;20523;-73
2022/05/29 11:19:24;;;;;;;9.37;2.20;;;;;;;;;;4987874;28;20431;-75
2022/05/29 11:21:52;;;;;;;10.18;1.92;;;;;;;;;;4969548;28;20440;-74
2022/05/29 11:24:21;;;;;;;5.72;1.63;;;;;;;;;;4990789;28;20426;-74
2022/05/29 11:27:04;;;;;;;10.98;1.90;;;;;;;;;;4971082;28;20439;-74
2022/05/29 11:29:31;;;;;;;7.83;2.10;;;;;;;;;;4973983;28;20439;-75
2022/05/29 11:32:00;;;;;;;8.32;2.03;;;;;;;;;;4990903;28;20818;-75
2022/05/29 11:34:44;;;;;;;10.45;2.10;;;12.30;99.90;;;;;;4987197;28;20435;-75
2022/05/29 11:37:29;;;;;;;9.73;1.98;;;;;;;;;;4988452;28;20810;-75
2022/05/29 11:39:55;;;;;;;8.20;1.90;;;;;;;;;;4986373;28;20429;-74
2022/05/29 11:42:25;;;;;;;7.30;2.00;;;;;;;;;;4991746;28;20526;-74
2022/05/29 11:44:59;;;;;;;8.07;2.28;;;13.10;99.90;;;;;;4989290;28;20461;-74
2022/05/29 11:51:07;;;;;;;7.25;1.85;;;;;;;;;;4992065;28;20438;-74
2022/05/29 11:53:17;;;;;;;8.68;2.08;;;;;;;;;;4983704;28;20434;-75
2022/05/29 11:55:44;;;;;;;9.13;2.20;;;;;;;;;;4977044;28;20486;-75
2022/05/29 11:58:20;;;;;;;8.52;2.03;;;13.00;99.90;;;;;;4990291;28;20456;-74
2022/05/29 12:00:58;;;;;;;8.48;1.70;;;13.20;99.90;;;;;;4992113;28;20508;-74
2022/05/29 12:03:46;;;;;;;11.15;2.45;;;;;;;;;;4990176;28;20430;-75
2022/05/29 12:06:12;;;;;;;8.90;1.90;;;;;;;;;;4975011;28;20488;-74
2022/05/29 12:08:57;;;;;;;15.93;2.80;;;;;;;;;;4992228;28;20666;-74
2022/05/29 12:11:40;;;;;;;12.27;2.38;;;12.60;99.90;;;;;;4990666;28;20422;-74
2022/05/29 12:14:39;;;;;;;10.73;2.22;;;12.30;99.90;;;;;;4979815;28;20432;-75
2022/05/29 12:17:12;;;;;;;8.45;2.10;;;;;;;;;;4967410;28;20460;-74
2022/05/29 12:19:44;;;;;;;9.45;2.15;;;;;;;;;;4983695;28;20446;-75
2022/05/29 12:22:11;;;;;;;9.77;2.20;;;;;;;;;;4985337;28;20546;-75
2022/05/29 12:24:47;;;;;;;9.57;2.20;;;12.30;99.90;;;;;;4981684;28;20439;-74
2022/05/29 12:27:15;;;;;;;8.63;2.10;;;;;;;;;;4970604;28;20918;-76
2022/05/29 12:29:53;;;;;;;8.48;1.83;;;;;;;;;;4969983;28;20490;-75
2022/05/29 12:32:20;;;;;;;8.10;2.05;;;;;;;;;;4990362;28;20430;-74
2022/05/29 12:34:56;;;;;;;7.77;1.70;;;;;;;;;;4967883;28;20521;-75
2022/05/29 12:37:22;;;;;;;6.28;1.60;;;;;;;;;;4986870;28;20458;-75
2022/05/29 12:40:07;;;;;;;7.78;1.67;;;;;;;;;;4985568;28;21336;-74
2022/05/29 12:42:49;;;;;;;8.47;1.73;;;;;;;;;;4989708;28;20434;-74
2022/05/29 12:45:36;;;;;;;8.23;1.80;;;;;;;;;;4971277;28;20511;-74
2022/05/29 12:48:15;;;;;;;8.32;1.83;;;;;;;;;;4965508;28;20439;-75
2022/05/29 12:51:00;;;;;;;6.28;1.60;;;12.90;99.90;;;;;;4985095;28;20469;-75
2022/05/29 12:53:38;;;;;;;8.88;1.88;;;;;;;;;;4967067;28;20451;-73
2022/05/29 12:56:12;;;;;;;11.32;1.90;;;;;;;;;;4972393;28;20431;-75
2022/05/29 12:58:47;;;;;;;9.82;2.05;;;;;;;;;;4991052;28;20427;-72
2022/05/29 13:01:44;;;;;;;9.52;2.00;;;12.10;99.90;;;;;;4962607;28;20519;-72
2022/05/29 13:04:46;;;;;;;12.20;2.67;;;;;;;;;;4983415;28;20442;-72
2022/05/29 13:07:23;;;;;;;8.13;1.90;;;;;;;;;;4982273;28;20454;-72
2022/05/29 13:10:02;;;;;;;7.30;1.98;;;;;;;;;;4982293;28;20425;-72
2022/05/29 13:12:42;;;;;;;7.63;1.80;;;12.40;99.90;;;;;;4976262;28;20473;-72
2022/05/29 13:15:11;;;;;;;9.73;2.40;;;;;;;;;;4982186;28;20877;-72
2022/05/29 13:17:38;;;;;;;12.40;1.98;;;;;;;;;;4978436;28;20511;-73
2022/05/29 13:20:10;;;;;;;10.55;1.90;;;13.10;99.90;;;;;;4977753;28;20419;-72
2022/05/29 13:22:46;;;;;;;8.15;1.85;;;;;;;;;;4983267;28;20512;-73
2022/05/29 13:25:14;;;;;;;6.93;1.60;;;13.20;99.90;;;;;;4977990;28;20476;-72
2022/05/29 13:27:40;;;;;;;7.93;1.65;;;;;;;;;;4983578;28;20509;-73
2022/05/29 13:30:34;;;;;;;8.18;1.83;;;13.00;99.90;;;;;;4980194;28;20855;-73
2022/05/29 13:33:21;;;;;;;7.00;1.85;;;;;;;;;;4976950;28;20749;-72
2022/05/29 13:35:48;;;;;;;8.07;1.87;;;;;;;;;;4975023;28;20430;-74
2022/05/29 13:38:34;;;;;;;8.55;1.80;;;;;;;;;;4974831;28;20846;-73
2022/05/29 13:41:04;;;;;;;11.10;2.05;;;;;;;;;;4978717;28;20510;-73
2022/05/29 13:43:30;;;;;;;9.30;2.17;;;;;;;;;;4981153;28;20496;-74
2022/05/29 13:45:58;;;;;;;12.43;2.42;;;;;;;;;;4980188;28;20424;-74
2022/05/29 13:48:30;;;;;;;10.10;2.42;;;;;;;;;;4965904;28;20428;-72
2022/05/29 13:51:12;;;;;;;8.40;2.00;;;;;;;;;;4962405;28;20769;-73
2022/05/29 13:53:55;;;;;;;9.60;2.40;;;;;;;;;;4964319;28;20529;-73
2022/05/29 13:56:21;;;;;;;11.13;2.00;;;;;;;;;;4974317;28;21175;-74
2022/05/29 14:04:55;;;;;;;12.73;3.00;;;12.30;99.90;;;;;;4985986;28;20616;-75
2022/05/29 14:07:23;;;;;;;8.32;1.98;;;;;;;;;;4980643;28;20433;-75
2022/05/29 14:09:49;;;;;;;9.75;2.35;;;;;;;;;;4980904;28;20513;-74
2022/05/29 14:12:35;;;;;;;9.98;2.30;;;;;;;;;;4966285;28;20466;-74
2022/05/29 14:15:22;;;;;;;8.55;1.83;;;12.50;99.90;;;;;;4979936;28;20495;-74
2022/05/29 14:17:49;;;;;;;8.35;1.90;;;;;;;;;;4968288;28;20443;-75
2022/05/29 14:20:21;;;;;;;8.88;1.80;;;;;;;;;;4963762;28;20445;-74
2022/05/29 14:23:06;;;;;;;8.93;1.97;;;;;;;;;;4981642;28;20716;-75
2022/05/29 14:25:53;;;;;;;7.05;1.58;;;;;;;;;;4967120;28;20437;-73
2022/05/29 14:28:25;;;;;;;5.13;1.45;;;;;;;;;;4983608;28;20456;-74
2022/05/29 14:31:13;;;;;;;9.23;2.08;;;;;;;;;;4980299;28;21230;-74
2022/05/29 14:34:00;;;;;;;7.63;1.60;;;13.40;99.90;;;;;;4984541;28;20518;-75
2022/05/29 14:37:06;;;;;;;10.80;2.00;;;13.20;99.90;;;;;;4966853;28;20424;-74
2022/05/29 14:39:50;;;;;;;9.13;1.90;;;13.20;99.90;;;;;;4979239;28;20420;-75
2022/05/29 14:42:30;;;;;;;8.30;2.00;;;;;;;;;;4976983;28;20845;-74
2022/05/29 14:45:03;;;;;;;11.88;2.10;;;;;;;;;;4969120;28;20446;-74
2022/05/29 14:47:48;;;;;;;7.22;1.70;;;;;;;;;;4981139;28;20422;-73
2022/05/29 14:50:19;;;;;;;10.10;2.70;;;;;;;;;;4982002;28;20431;-73
2022/05/29 14:52:51;;;;;;;8.88;1.95;;;;;;;;;;4983734;28;20506;-74
2022/05/29 14:55:26;;;;;;;9.77;2.60;;;12.90;99.90;;;;;;4982009;28;20474;-74
2022/05/29 14:57:56;;;;;;;10.82;2.40;;;;;;;;;;4979365;28;20425;-74
2022/05/29 15:00:27;;;;;;;9.27;2.25;;;;;;;;;;4982877;28;20410;-74
2022/05/29 15:02:54;;;;;;;12.02;2.15;;;13.20;99.90;;;;;;4986572;28;20457;-74
2022/05/29 15:05:21;;;;;;;10.15;2.08;;;;;;;;;;4980031;28;21156;-73
2022/05/29 15:11:01;;;;;;;7.83;2.03;;;13.50;99.90;;;;;;4983867;28;20454;-74
2022/05/29 15:13:56;;;;;;;10.55;2.83;;;;;;;;;;4978478;28;20470;-74